Time;durP1;ratioP1;P1;durP2;ratioP2;P2;SDS_P1;SDS_P2;PMS_P1;PMS_P2;Temp;Humidity;BMP_temperature;BMP_pressure;BME280_temperature;BME280_humidity;BME280_pressure;Samples;Min_cycle;Max_cycle;Signal;HPM_P1;HPM_P2
2022/10/05 00:00:59;;;;;;;6.93;3.05;;;;;;;8.73;100.00;100990.09;6346409;28;20044;-74
2022/10/05 00:04:25;;;;;;;3.45;2.72;;;;;;;8.73;100.00;101000.50;6345267;28;20042;-74
2022/10/05 00:07:29;;;;;;;3.65;2.28;;;;;;;8.73;100.00;100991.81;6346404;28;20046;-74
2022/10/05 00:10:29;;;;;;;6.28;3.10;;;;;;;8.73;100.00;100995.28;6344882;28;20040;-74
2022/10/05 00:13:30;;;;;;;3.85;2.55;;;;;;;8.63;100.00;100989.59;6345152;28;20182;-74
2022/10/05 00:16:31;;;;;;;4.65;3.05;;;;;;;8.60;100.00;100988.84;6345039;28;20040;-74
2022/10/05 00:19:35;;;;;;;3.40;2.72;;;;;;;8.60;100.00;101002.69;6345069;28;20604;-74
2022/10/05 00:22:36;;;;;;;5.80;2.92;;;;;;;8.52;100.00;101001.28;6346408;28;20047;-75
2022/10/05 00:25:40;;;;;;;4.55;3.00;;;;;;;8.52;100.00;101009.09;6350938;28;20385;-74
2022/10/05 00:28:40;;;;;;;1.95;1.85;;;;;;;8.52;100.00;101003.91;6350701;28;20050;-74
2022/10/05 00:31:41;;;;;;;4.82;2.40;;;;;;;8.43;100.00;101000.72;6383914;27;20507;-75
2022/10/05 00:34:43;;;;;;;4.53;2.50;;;;;;;8.41;100.00;101005.13;6349523;28;20051;-74
2022/10/05 00:37:50;;;;;;;6.20;3.23;;;;;;;8.40;100.00;101002.56;6350606;28;20563;-74
2022/10/05 00:40:56;;;;;;;2.72;2.28;;;;;;;8.38;100.00;101005.22;6349360;28;20168;-74
2022/10/05 00:44:15;;;;;;;4.78;2.72;;;;;;;8.37;100.00;101002.69;6349409;28;20074;-74
2022/10/05 00:47:41;;;;;;;4.25;2.70;;;;;;;8.37;100.00;101011.31;6349393;28;20066;-74
2022/10/05 00:51:11;;;;;;;3.70;2.80;;;;;;;8.32;100.00;100997.66;6349006;28;20036;-74
2022/10/05 00:54:18;;;;;;;4.85;2.28;;;;;;;8.32;100.00;101000.25;6350316;28;20040;-74
2022/10/05 00:57:51;;;;;;;4.38;2.78;;;;;;;8.30;100.00;100999.47;6349059;28;20039;-74
2022/10/05 01:01:12;;;;;;;3.25;2.67;;;;;;;8.25;100.00;100997.00;6349621;28;20414;-74
2022/10/05 01:04:26;;;;;;;4.07;2.55;;;;;;;8.27;100.00;100989.16;6349990;28;20048;-74
2022/10/05 01:07:27;;;;;;;3.13;2.35;;;;;;;8.23;100.00;100998.81;6348823;28;20125;-74
2022/10/05 01:10:30;;;;;;;7.18;3.25;;;;;;;8.22;100.00;100997.13;6348496;28;20445;-74
2022/10/05 01:13:43;;;;;;;3.05;2.35;;;;;;;8.17;100.00;100982.59;6348740;28;20046;-74
2022/10/05 01:16:50;;;;;;;;;;;;;;;8.20;100.00;100978.16;6383207;27;20047;-74
2022/10/05 01:20:11;;;;;;;2.95;2.22;;;;;;;8.15;100.00;100976.59;6348331;28;19955;-74
2022/10/05 01:23:20;;;;;;;4.68;2.90;;;;;;;8.15;100.00;100984.41;6349598;28;20035;-74
2022/10/05 01:26:33;;;;;;;4.68;2.50;;;;;;;8.14;100.00;100982.72;6348383;28;20042;-75
2022/10/05 01:29:43;;;;;;;4.63;2.90;;;;;;;8.11;100.00;100988.03;6349308;28;20506;-74
2022/10/05 01:32:53;;;;;;;4.38;2.83;;;;;;;8.06;100.00;100988.19;6330977;28;20495;-74
2022/10/05 01:35:54;;;;;;;3.83;2.67;;;;;;;8.05;100.00;100994.28;6347499;28;20075;-74
2022/10/05 01:39:21;;;;;;;5.03;2.92;;;;;;;8.07;100.00;101002.88;6348183;28;20509;-74
2022/10/05 01:42:30;;;;;;;3.90;2.40;;;;;;;8.03;100.00;100993.47;6347993;28;20046;-74
2022/10/05 01:45:52;;;;;;;4.78;2.90;;;;;;;8.00;100.00;101002.25;6349101;28;20044;-75
2022/10/05 01:48:53;;;;;;;4.97;2.97;;;;;;;7.93;100.00;101010.28;6349000;28;20054;-75
2022/10/05 01:52:15;;;;;;;4.30;2.88;;;;;;;7.93;100.00;101016.38;6348824;28;20036;-75
2022/10/05 01:55:26;;;;;;;3.88;2.53;;;;;;;7.92;100.00;101017.25;6348890;28;20441;-75
2022/10/05 01:58:39;;;;;;;4.53;2.55;;;;;;;7.92;100.00;101019.84;6347555;28;20042;-74
2022/10/05 02:01:40;;;;;;;3.05;2.45;;;;;;;7.90;100.00;101020.81;6348701;28;20043;-75
2022/10/05 02:04:56;;;;;;;6.50;2.60;;;;;;;7.90;100.00;101019.06;6348505;28;20101;-75
2022/10/05 02:08:07;;;;;;;3.72;3.00;;;;;;;7.87;100.00;101027.81;6348549;28;20035;-75
2022/10/05 02:11:14;;;;;;;4.88;2.55;;;;;;;7.86;100.00;101025.25;6348270;28;20043;-75
2022/10/05 02:14:25;;;;;;;2.80;2.00;;;;;;;7.86;100.00;101023.53;6348438;28;20459;-75
2022/10/05 02:17:34;;;;;;;3.88;2.80;;;;;;;7.77;100.00;101023.84;6347066;28;20042;-75
2022/10/05 02:20:38;;;;;;;4.43;2.75;;;;;;;7.80;100.00;101028.06;6348060;28;20500;-76
2022/10/05 02:23:42;;;;;;;5.55;2.75;;;;;;;7.70;100.00;101022.34;6348045;28;20051;-75
2022/10/05 02:26:45;;;;;;;4.88;2.88;;;;;;;7.69;100.00;101031.03;6348054;28;20449;-76
2022/10/05 02:29:47;;;;;;;;;;;;;;;7.63;100.00;101029.47;6348299;28;20466;-75
2022/10/05 02:33:01;;;;;;;7.30;3.08;;;;;;;7.57;100.00;101039.22;6347947;28;20036;-75
2022/10/05 02:36:17;;;;;;;8.18;3.67;;;;;;;7.51;100.00;101034.25;6346591;28;20055;-76
2022/10/05 02:39:51;;;;;;;7.28;3.78;;;;;;;7.51;100.00;101044.63;6346623;28;20040;-76
2022/10/05 02:43:07;;;;;;;5.55;3.53;;;;;;;7.50;100.00;101042.94;6331143;28;20112;-75
2022/10/05 02:46:47;;;;;;;5.13;2.58;;;;;;;7.51;100.00;101049.81;6346821;28;20040;-75
2022/10/05 02:50:07;;;;;;;3.05;2.13;;;;;;;7.45;100.00;101045.66;6346463;28;20483;-75
2022/10/05 02:53:26;;;;;;;4.38;2.40;;;;;;;7.44;100.00;101047.41;6345242;28;20612;-75
2022/10/05 02:56:54;;;;;;;7.00;2.40;;;;;;;7.38;100.00;101047.63;6347433;28;20487;-75
2022/10/05 03:00:18;;;;;;;4.70;2.40;;;;;;;7.37;100.00;101047.66;6347383;28;20044;-75
2022/10/05 03:03:27;;;;;;;4.35;2.58;;;;;;;7.41;100.00;101050.13;6345987;28;20434;-75
2022/10/05 03:06:37;;;;;;;2.22;1.75;;;;;;;7.43;100.00;101044.88;6347253;28;20040;-75
2022/10/05 03:09:49;;;;;;;5.25;2.45;;;;;;;7.40;100.00;101042.38;6345925;28;20047;-75
2022/10/05 03:13:01;;;;;;;3.88;2.10;;;;;;;7.35;100.00;101050.31;6347019;28;20123;-76
2022/10/05 03:16:10;;;;;;;3.30;2.20;;;;;;;7.38;100.00;101055.41;6347072;28;20081;-76
2022/10/05 03:19:26;;;;;;;2.85;2.13;;;;;;;7.37;100.00;101045.94;6346877;28;20106;-75
2022/10/05 03:22:30;;;;;;;4.43;2.75;;;;;;;7.38;100.00;101054.56;6346945;28;20066;-75
2022/10/05 03:25:46;;;;;;;3.90;2.25;;;;;;;7.38;100.00;101055.41;6328714;28;20048;-75
2022/10/05 03:28:57;;;;;;;4.63;2.33;;;;;;;7.39;100.00;101056.25;6345594;28;20044;-76
2022/10/05 03:32:19;;;;;;;2.83;1.92;;;;;;;7.39;100.00;101064.03;6346735;28;20044;-75
2022/10/05 03:35:51;;;;;;;3.53;2.28;;;;;;;7.33;100.00;101062.50;6345789;28;20043;-75
2022/10/05 03:39:20;;;;;;;3.23;2.27;;;;;;;7.32;100.00;101055.59;6346803;28;20475;-76
2022/10/05 03:42:39;;;;;;;5.38;2.13;;;;;;;7.30;100.00;101060.00;6346713;28;20119;-75
2022/10/05 03:46:04;;;;;;;4.25;2.72;;;;;;;7.25;100.00;101057.53;6345556;28;20115;-76
2022/10/05 03:49:36;;;;;;;6.10;2.50;;;;;;;7.22;100.00;101052.44;6345370;28;20544;-75
2022/10/05 03:52:37;;;;;;;3.30;2.10;;;;;;;7.21;100.00;101058.53;6346564;28;20044;-75
2022/10/05 03:56:00;;;;;;;3.92;1.98;;;;;;;7.15;100.00;101057.88;6346486;28;20082;-75
2022/10/05 03:59:17;;;;;;;3.05;2.03;;;;;;;7.23;100.00;101061.09;6350492;28;20048;-75
2022/10/05 04:02:28;;;;;;;3.20;2.25;;;;;;;7.22;100.00;101062.81;6350368;28;20039;-76
2022/10/05 04:05:51;;;;;;;3.58;2.58;;;;;;;7.23;100.00;101067.13;6350329;28;20036;-76
2022/10/05 04:09:13;;;;;;;5.43;2.47;;;;;;;7.24;100.00;101062.78;6349855;28;20126;-75
2022/10/05 04:12:37;;;;;;;2.40;1.92;;;;;;;7.21;100.00;101068.06;6351344;28;20055;-75
2022/10/05 04:15:44;;;;;;;3.08;2.20;;;;;;;7.23;100.00;101063.69;6350220;28;20075;-75
2022/10/05 04:19:03;;;;;;;2.97;1.88;;;;;;;7.22;100.00;101060.22;6350977;28;20118;-75
2022/10/05 04:22:09;;;;;;;2.50;1.95;;;;;;;7.28;100.00;101061.78;6349806;28;20039;-76
2022/10/05 04:25:18;;;;;;;3.55;1.95;;;;;;;7.24;100.00;101061.03;6351039;28;20044;-76
2022/10/05 04:28:24;;;;;;;3.08;2.05;;;;;;;7.21;100.00;101057.69;6349662;28;20412;-75
2022/10/05 04:31:57;;;;;;;3.33;1.92;;;;;;;7.22;100.00;101068.00;6349677;28;20063;-75
2022/10/05 04:35:25;;;;;;;2.33;1.83;;;;;;;7.25;100.00;101064.50;6349677;28;20039;-75
2022/10/05 04:38:35;;;;;;;3.30;1.85;;;;;;;7.25;100.00;101061.91;6350747;28;20487;-75
2022/10/05 04:42:00;;;;;;;2.58;1.95;;;;;;;7.22;100.00;101075.78;6349443;28;20067;-74
2022/10/05 04:45:13;;;;;;;2.22;1.85;;;;;;;7.18;100.00;101070.75;6350532;28;20050;-76
2022/10/05 04:48:21;;;;;;;2.97;2.00;;;;;;;7.24;100.00;101088.72;6350528;28;20050;-74
2022/10/05 04:51:38;;;;;;;1.67;1.45;;;;;;;7.27;100.00;101093.84;6332313;28;20062;-76
2022/10/05 04:54:48;;;;;;;8.20;2.38;;;;;;;7.30;100.00;101092.91;6350266;28;20043;-74
2022/10/05 04:58:01;;;;;;;3.28;2.08;;;;;;;7.25;100.00;101083.50;6350248;28;20040;-75
2022/10/05 05:01:53;;;;;;;3.25;1.55;;;;;;;7.33;100.00;101088.47;6348998;28;20062;-75
2022/10/05 05:05:04;;;;;;;4.30;2.20;;;;;;;7.25;100.00;101090.44;6326556;28;20052;-75
2022/10/05 05:08:40;;;;;;;1.98;1.67;;;;;;;7.33;100.00;101097.97;6348691;28;20039;-74
2022/10/05 05:11:44;;;;;;;1.90;1.67;;;;;;;7.35;100.00;101093.59;6348737;28;20112;-75
2022/10/05 05:15:03;;;;;;;1.80;1.38;;;;;;;7.45;100.00;101100.19;6350155;28;20074;-75
2022/10/05 05:19:18;;;;;;;1.70;1.55;;;;;;;7.53;100.00;101106.00;6348430;28;20047;-75
2022/10/05 05:22:43;;;;;;;1.45;1.23;;;;;;;7.66;100.00;101101.28;6258576;28;20067;-75
2022/10/05 05:26:06;;;;;;;2.45;1.55;;;;;;;7.66;100.00;101093.50;6284583;28;20725;-76
2022/10/05 05:29:06;;;;;;;;;;;;;;;7.67;100.00;101093.41;6349953;28;20074;-75
2022/10/05 05:32:18;;;;;;;1.35;1.23;;;;;;;7.66;100.00;101102.13;6365364;27;19920;-75
2022/10/05 05:35:29;;;;;;;4.53;1.77;;;;;;;7.80;100.00;101108.59;6349489;28;20031;-75
2022/10/05 05:38:38;;;;;;;5.15;1.48;;;;;;;7.87;100.00;101103.16;6348129;28;20044;-75
2022/10/05 05:41:57;;;;;;;2.55;1.55;;;;;;;7.84;100.00;101105.88;6347949;28;20485;-75
2022/10/05 05:45:06;;;;;;;2.67;1.75;;;;;;;7.96;100.00;101107.22;6347800;28;20051;-75
2022/10/05 05:48:22;;;;;;;1.25;1.13;;;;;;;8.10;100.00;101111.94;6382122;27;20039;-75
2022/10/05 05:51:38;;;;;;;1.95;1.67;;;;;;;8.21;100.00;101116.78;6348918;28;20544;-75
2022/10/05 05:54:49;;;;;;;7.25;2.95;;;;;;;8.30;100.00;101113.88;6347742;28;20040;-76
2022/10/05 05:57:57;;;;;;;5.20;2.38;;;;;;;8.31;100.00;101114.72;6348060;28;20035;-75
2022/10/05 06:01:12;;;;;;;1.85;1.38;;;;;;;8.39;100.00;101107.50;6348693;28;20045;-75
2022/10/05 06:04:30;;;;;;;3.35;2.10;;;;;;;8.50;100.00;101115.78;6348506;28;20043;-75
2022/10/05 06:07:31;;;;;;;1.33;1.17;;;;;;;8.52;100.00;101103.56;6348644;28;20104;-75
2022/10/05 06:10:47;;;;;;;7.35;1.45;;;;;;;8.68;100.00;101106.50;6347089;28;20047;-75
2022/10/05 06:13:48;;;;;;;3.00;1.85;;;;;;;8.84;100.00;101109.38;6347130;28;20043;-75
2022/10/05 06:16:58;;;;;;;9.40;2.15;;;;;;;8.93;100.00;101119.44;6381468;27;20052;-75
2022/10/05 06:20:05;;;;;;;2.45;1.63;;;;;;;9.06;100.00;101131.09;6346886;28;20392;-75
2022/10/05 06:23:16;;;;;;;3.05;2.20;;;;;;;9.21;100.00;101132.28;6346786;28;20570;-75
2022/10/05 06:26:35;;;;;;;3.85;1.92;;;;;;;9.35;100.00;101117.88;6346973;28;20113;-75
2022/10/05 06:29:43;;;;;;;3.85;1.63;;;;;;;9.53;100.00;101135.38;6347029;28;20127;-75
2022/10/05 06:32:49;;;;;;;2.33;1.52;;;;;;;9.71;100.00;101136.41;6348020;28;20048;-75
2022/10/05 06:36:12;;;;;;;2.53;1.88;;;;;;;9.77;100.00;101145.75;6347812;28;20040;-75
2022/10/05 06:39:51;;;;;;;3.42;1.73;;;;;;;9.87;100.00;101147.06;6346892;28;20039;-76
2022/10/05 06:43:30;;;;;;;2.90;2.03;;;;;;;10.06;100.00;101157.59;6346160;28;20119;-75
2022/10/05 06:46:38;;;;;;;3.80;2.10;;;;;;;10.17;100.00;101155.41;6334793;28;20056;-75
2022/10/05 06:49:57;;;;;;;4.03;1.42;;;;;;;10.31;100.00;101146.16;6346390;28;20043;-73
2022/10/05 06:53:35;;;;;;;2.55;1.85;;;;;;;10.46;100.00;101148.13;6346387;28;20042;-73
2022/10/05 06:56:57;;;;;;;4.93;2.30;;;;;;;10.70;100.00;101154.03;6346176;28;20039;-74
2022/10/05 07:00:06;;;;;;;4.03;2.22;;;;;;;10.97;100.00;101167.63;6346046;28;20128;-74
2022/10/05 07:03:44;;;;;;;16.30;2.53;;;;;;;11.31;100.00;101181.78;6347257;28;20036;-73
2022/10/05 07:06:49;;;;;;;1.58;1.48;;;;;;;11.42;100.00;101196.94;6328930;28;20120;-74
2022/10/05 07:10:12;;;;;;;2.47;1.83;;;;;;;11.42;100.00;101213.47;6347062;28;20193;-73
2022/10/05 07:13:51;;;;;;;3.38;1.45;;;;;;;11.23;100.00;101216.06;6347110;28;20388;-73
2022/10/05 07:17:13;;;;;;;1.70;1.35;;;;;;;11.42;100.00;101225.69;6337062;28;20602;-74
2022/10/05 07:20:38;;;;;;;2.55;2.00;;;;;;;11.40;100.00;101233.59;6346926;28;20130;-73
2022/10/05 07:23:58;;;;;;;2.25;1.48;;;;;;;11.22;100.00;101250.97;6345650;28;20052;-76
2022/10/05 07:27:18;;;;;;;1.92;1.20;;;;;;;11.39;100.00;101258.06;6346970;28;20066;-75
2022/10/05 07:30:19;;;;;;;3.00;1.60;;;;;;;11.46;100.00;101262.06;6346783;28;20032;-75
2022/10/05 07:33:32;;;;;;;2.55;1.60;;;;;;;11.58;100.00;101263.28;6362101;27;20138;-75
2022/10/05 07:40:25;;;;;;;2.10;1.70;;;;;;;11.93;100.00;101283.53;6346709;28;20403;-76
2022/10/05 07:43:44;;;;;;;3.38;1.85;;;;;;;11.99;100.00;101288.47;6346666;28;20043;-75
2022/10/05 07:46:47;;;;;;;3.55;1.80;;;;;;;12.00;100.00;101285.75;6345309;28;20035;-75
2022/10/05 07:50:13;;;;;;;1.70;1.52;;;;;;;11.89;100.00;101286.25;6346521;28;20039;-75
2022/10/05 07:53:30;;;;;;;3.05;1.80;;;;;;;12.28;100.00;101282.66;6345222;28;20046;-76
2022/10/05 07:56:47;;;;;;;1.92;1.35;;;;;;;12.55;100.00;101297.94;6346521;28;20475;-75
2022/10/05 08:00:06;;;;;;;5.50;1.70;;;;;;;12.83;100.00;101286.09;6345131;28;20518;-76
2022/10/05 08:03:22;;;;;;;1.90;1.35;;;;;;;12.94;100.00;101281.16;6346456;28;20063;-75
2022/10/05 08:06:47;;;;;;;2.05;1.67;;;;;;;13.05;100.00;101270.09;6345257;28;20128;-76
2022/10/05 08:10:13;;;;;;;2.17;1.55;;;;;;;13.28;100.00;101256.66;6345088;28;20390;-75
2022/10/05 08:13:24;;;;;;;3.20;1.40;;;;;;;13.41;100.00;101251.63;6346475;28;20047;-75
2022/10/05 08:16:29;;;;;;;1.88;1.33;;;;;;;13.64;100.00;101242.50;6362270;28;20483;-76
2022/10/05 08:19:49;;;;;;;4.60;1.70;;;;;;;13.70;100.00;101239.53;6344823;28;20079;-75
2022/10/05 08:22:56;;;;;;;2.20;1.58;;;;;;;13.67;100.00;101231.00;6345193;28;20494;-74
2022/10/05 08:26:09;;;;;;;1.58;1.33;;;;;;;13.93;100.00;101234.78;6344933;28;20044;-75
2022/10/05 08:29:35;;;;;;;2.15;1.83;;;;;;;13.86;100.00;101223.81;6346178;28;20440;-74
2022/10/05 08:32:37;;;;;;;2.08;1.75;;;;;;;14.00;100.00;101220.41;6327927;28;20134;-74
2022/10/05 08:35:45;;;;;;;3.53;1.98;;;;;;;14.10;100.00;101218.97;6345988;28;20066;-74
2022/10/05 08:38:46;;;;;;;2.20;1.67;;;;;;;14.11;100.00;101225.03;6344848;28;20039;-74
2022/10/05 08:42:08;;;;;;;5.13;2.10;;;;;;;14.45;100.00;101226.53;6346067;28;20042;-74
2022/10/05 08:45:28;;;;;;;1.63;1.52;;;;;;;14.64;100.00;101239.50;6346938;28;20048;-74
2022/10/05 08:48:29;;;;;;;2.75;1.60;;;;;;;14.54;98.94;101238.31;6349245;28;20065;-74
2022/10/05 08:51:59;;;;;;;4.80;2.05;;;;;;;14.70;98.63;101236.50;6366394;27;20531;-74
2022/10/05 08:55:09;;;;;;;6.00;2.28;;;;;;;14.84;97.84;101258.47;6342642;28;20150;-74
2022/10/05 08:58:30;;;;;;;6.07;1.95;;;;;;;15.28;98.41;101283.84;6350348;28;20039;-74
2022/10/05 09:01:53;;;;;;;5.03;1.80;;;;;;;15.40;90.27;101298.00;6331995;28;20055;-76
2022/10/05 09:05:18;;;;;;;6.43;1.60;;;;;;;15.68;91.63;101298.00;6350058;28;20051;-75
2022/10/05 09:08:41;;;;;;;3.53;1.80;;;;;;;15.78;88.43;101306.19;6348811;28;20085;-75
2022/10/05 09:11:52;;;;;;;5.93;1.67;;;;;;;15.61;86.59;101286.19;6349942;28;20092;-75
2022/10/05 09:15:20;;;;;;;2.72;2.03;;;;;;;15.82;86.79;101283.16;6348687;28;20451;-76
2022/10/05 09:18:49;;;;;;;3.65;2.08;;;;;;;16.08;86.56;101298.13;6349515;28;20048;-75
2022/10/05 09:22:12;;;;;;;2.05;1.60;;;;;;;16.11;84.45;101283.94;6348438;28;20052;-74
2022/10/05 09:25:42;;;;;;;1.90;1.50;;;;;;;16.18;83.37;101268.56;6349675;28;20051;-76
2022/10/05 09:28:51;;;;;;;3.28;1.60;;;;;;;16.35;82.71;101255.16;6334708;27;20073;-74
2022/10/05 09:32:23;;;;;;;2.30;1.45;;;;;;;16.42;81.03;101251.16;6348357;28;20078;-74
2022/10/05 09:35:59;;;;;;;;;;;;;;;16.60;81.82;101253.50;6349752;27;20043;-75
2022/10/05 09:39:03;;;;;;;3.05;1.50;;;;;;;16.86;80.26;101257.03;6326443;28;19919;-74
2022/10/05 09:42:45;;;;;;;2.40;1.63;;;;;;;16.70;77.64;101242.25;6349241;28;20419;-74
2022/10/05 09:46:23;;;;;;;1.38;1.27;;;;;;;16.87;77.67;101245.56;6339979;28;20060;-74
2022/10/05 09:49:48;;;;;;;1.83;1.30;;;;;;;16.83;76.98;101241.44;6347784;28;20093;-74
2022/10/05 09:53:28;;;;;;;1.95;1.30;;;;;;;17.17;74.88;101241.72;6348998;28;20089;-74
2022/10/05 09:57:15;;;;;;;2.38;1.33;;;;;;;17.67;73.74;101242.59;6347159;28;20043;-74
2022/10/05 10:00:26;;;;;;;1.20;1.10;;;;;;;17.40;66.96;101245.38;6348782;28;20422;-74
2022/10/05 10:03:57;;;;;;;5.90;1.17;;;;;;;17.24;68.34;101251.75;6347527;28;20046;-77
2022/10/05 10:07:25;;;;;;;4.95;1.17;;;;;;;17.17;68.50;101250.47;6348585;28;20484;-74
2022/10/05 10:11:02;;;;;;;0.90;0.80;;;;;;;17.70;67.99;101251.09;6347204;28;20082;-76
2022/10/05 10:14:15;;;;;;;3.25;1.35;;;;;;;18.03;65.76;101265.47;6347560;28;20043;-75
2022/10/05 10:17:30;;;;;;;1.20;1.10;;;;;;;17.93;66.16;101259.19;6364312;27;20529;-76
2022/10/05 10:21:11;;;;;;;1.73;1.20;;;;;;;18.02;68.09;101252.41;6346826;28;20059;-74
2022/10/05 10:24:31;;;;;;;2.15;1.27;;;;;;;17.69;67.01;101241.50;6347791;28;20056;-74
2022/10/05 10:27:53;;;;;;;2.03;1.50;;;;;;;17.95;69.75;101254.63;6346861;28;20040;-74
2022/10/05 10:31:16;;;;;;;1.75;1.40;;;;;;;17.80;64.84;101247.81;6346861;28;20047;-74
2022/10/05 10:34:42;;;;;;;2.00;1.10;;;;;;;17.57;66.12;101252.94;6347942;28;20090;-76
2022/10/05 10:38:27;;;;;;;1.48;1.20;;;;;;;17.33;65.72;101258.16;6347750;28;20127;-75
2022/10/05 10:41:56;;;;;;;0.60;0.60;;;;;;;17.47;65.85;101262.47;6346457;28;20122;-76
2022/10/05 10:45:32;;;;;;;1.10;1.00;;;;;;;17.34;68.49;101270.41;6346372;28;20048;-75
2022/10/05 10:48:59;;;;;;;1.88;1.02;;;;;;;17.57;65.35;101260.03;6347621;28;20044;-76
2022/10/05 10:52:37;;;;;;;1.40;1.10;;;;;;;17.84;63.40;101250.16;6352710;27;20423;-76
2022/10/05 10:56:03;;;;;;;0.60;0.60;;;;;;;18.20;62.34;101247.56;6346184;28;20051;-76
2022/10/05 10:59:15;;;;;;;0.93;0.60;;;;;;;18.02;59.73;101242.69;6329265;28;20456;-75
2022/10/05 11:02:21;;;;;;;1.92;1.05;;;;;;;17.71;58.08;101246.69;6363290;27;20150;-75
2022/10/05 11:05:22;;;;;;;1.05;0.90;;;;;;;17.86;62.40;101248.25;6347361;28;20380;-75
2022/10/05 11:08:45;;;;;;;0.60;0.50;;;;;;;18.15;58.58;101249.72;6328124;28;20067;-76
2022/10/05 11:12:23;;;;;;;1.23;0.73;;;;;;;18.38;59.85;101251.47;6347221;28;20047;-75
2022/10/05 11:15:39;;;;;;;0.73;0.60;;;;;;;18.08;55.35;101252.78;6345783;28;20047;-75
2022/10/05 11:19:19;;;;;;;1.13;0.90;;;;;;;18.30;55.40;101246.78;6328667;28;20059;-75
2022/10/05 11:22:56;;;;;;;1.67;1.05;;;;;;;18.73;55.17;101253.25;6345799;28;20044;-74
2022/10/05 11:26:23;;;;;;;1.77;0.80;;;;;;;18.48;56.97;101251.63;6346875;28;20122;-74
2022/10/05 11:29:33;;;;;;;1.45;0.80;;;;;;;18.77;55.65;101246.75;6346810;28;20046;-75
2022/10/05 11:33:11;;;;;;;1.20;0.75;;;;;;;18.29;56.94;101239.78;6345761;28;20704;-74
2022/10/05 11:36:21;;;;;;;2.15;1.08;;;;;;;18.36;58.33;101240.16;6328634;28;20048;-76
2022/10/05 11:39:40;;;;;;;1.10;0.90;;;;;;;18.28;56.51;101229.31;6345554;28;20050;-74
2022/10/05 11:42:53;;;;;;;0.65;0.65;;;;;;;18.33;58.89;101238.59;6345505;28;20048;-75
2022/10/05 11:45:54;;;;;;;1.35;0.73;;;;;;;18.57;55.00;101239.50;6345489;28;20711;-74
2022/10/05 11:49:16;;;;;;;2.13;0.88;;;;;;;18.45;56.22;101236.84;6345353;28;20044;-74
2022/10/05 11:52:20;;;;;;;0.80;0.80;;;;;;;18.02;57.57;101237.41;6346624;28;20043;-74
2022/10/05 11:55:31;;;;;;;1.25;1.02;;;;;;;18.27;56.03;101231.13;6345414;28;20039;-74
2022/10/05 11:58:38;;;;;;;3.85;0.90;;;;;;;18.91;57.19;101219.28;6345179;28;20488;-74
2022/10/05 12:02:05;;;;;;;3.45;1.00;;;;;;;18.61;54.97;101218.00;6379739;27;20176;-75
2022/10/05 12:05:31;;;;;;;1.33;0.90;;;;;;;18.50;54.73;101220.63;6328347;28;20051;-76
2022/10/05 12:08:34;;;;;;;1.20;0.90;;;;;;;18.54;56.76;101227.38;6346398;28;20067;-75
2022/10/05 12:11:54;;;;;;;1.80;1.00;;;;;;;18.38;54.93;101211.00;6345267;28;20040;-76
2022/10/05 12:15:05;;;;;;;1.15;0.98;;;;;;;18.19;58.55;101206.25;6345137;28;20426;-76
2022/10/05 12:18:38;;;;;;;1.58;1.08;;;;;;;18.26;56.31;101212.75;6345469;28;20047;-76
2022/10/05 12:21:48;;;;;;;2.33;0.82;;;;;;;17.99;57.66;101211.22;6351317;28;20141;-76
2022/10/05 12:25:00;;;;;;;5.80;0.70;;;;;;;17.89;57.93;101212.84;6351135;28;20105;-76
2022/10/05 12:28:11;;;;;;;3.60;0.88;;;;;;;18.07;58.05;101200.91;6384076;27;20051;-75
2022/10/05 12:31:41;;;;;;;0.70;0.70;;;;;;;18.42;54.73;101215.09;6384097;27;20130;-75
2022/10/05 12:34:54;;;;;;;2.75;0.93;;;;;;;18.57;56.94;101205.97;6349676;28;20044;-75
2022/10/05 12:38:09;;;;;;;0.70;0.50;;;;;;;18.37;55.29;101193.47;6349614;28;20036;-76
2022/10/05 12:41:21;;;;;;;1.55;0.82;;;;;;;18.46;52.87;101190.94;6349638;28;20043;-75
2022/10/05 12:44:30;;;;;;;;;;;;;;;18.42;54.87;101183.38;6351049;28;20040;-75
2022/10/05 12:47:59;;;;;;;0.47;0.47;;;;;;;18.61;55.70;101188.09;6349327;28;20341;-74
2022/10/05 12:51:13;;;;;;;0.50;0.50;;;;;;;18.46;54.14;101174.25;6350372;28;20046;-74
2022/10/05 12:54:33;;;;;;;1.25;0.98;;;;;;;18.47;55.61;101182.06;6349172;28;20419;-75
2022/10/05 12:58:11;;;;;;;2.53;0.68;;;;;;;18.56;54.68;101180.53;6350172;28;20040;-75
2022/10/05 13:01:27;;;;;;;2.65;0.63;;;;;;;18.62;57.45;101166.00;6332027;28;20043;-76
2022/10/05 13:05:03;;;;;;;1.75;0.70;;;;;;;18.61;55.76;101175.72;6349026;28;20039;-75
2022/10/05 13:08:16;;;;;;;0.90;0.57;;;;;;;18.34;54.58;101181.31;6348791;28;20043;-74
2022/10/05 13:11:26;;;;;;;0.40;0.40;;;;;;;18.11;53.78;101181.25;6365822;27;21297;-75
2022/10/05 13:15:03;;;;;;;1.60;0.60;;;;;;;18.19;53.32;101171.91;6366004;27;20050;-75
2022/10/05 13:18:22;;;;;;;0.70;0.60;;;;;;;18.25;53.28;101168.81;6365530;27;20051;-74
2022/10/05 13:21:55;;;;;;;3.03;0.70;;;;;;;18.20;54.80;101158.59;6348619;28;20100;-74
2022/10/05 13:25:16;;;;;;;6.32;0.85;;;;;;;18.17;53.82;101160.63;6349726;28;20050;-74
2022/10/05 13:28:37;;;;;;;0.80;0.60;;;;;;;18.47;56.34;101155.66;6348350;28;20063;-74
2022/10/05 13:31:59;;;;;;;0.35;0.28;;;;;;;18.56;53.80;101156.75;6346897;28;20151;-74
2022/10/05 13:35:25;;;;;;;3.37;0.53;;;;;;;18.84;55.70;101160.75;6348261;28;20081;-75
2022/10/05 13:38:50;;;;;;;1.30;0.75;;;;;;;18.51;52.79;101167.66;6349331;28;20039;-76
2022/10/05 13:42:05;;;;;;;0.70;0.40;;;;;;;18.67;54.13;101158.53;6349323;28;20407;-75
2022/10/05 13:45:15;;;;;;;1.30;0.70;;;;;;;18.51;53.21;101150.94;6348052;28;20403;-75
2022/10/05 13:48:45;;;;;;;0.75;0.65;;;;;;;18.22;53.78;101158.47;6349087;28;20046;-75
2022/10/05 13:52:18;;;;;;;0.60;0.60;;;;;;;18.08;54.72;101154.25;6334976;28;20051;-75
2022/10/05 13:55:40;;;;;;;0.93;0.80;;;;;;;18.01;56.27;101143.28;6347837;28;20063;-76
2022/10/05 13:58:57;;;;;;;1.23;0.70;;;;;;;18.01;55.95;101158.28;6347644;28;20043;-76
2022/10/05 14:02:16;;;;;;;0.60;0.40;;;;;;;18.17;57.83;101153.53;6348800;28;20039;-75
2022/10/05 14:05:27;;;;;;;0.90;0.65;;;;;;;18.05;54.77;101150.00;6348780;28;20761;-75
2022/10/05 14:08:45;;;;;;;1.00;0.43;;;;;;;18.01;55.94;101145.09;6348631;28;20040;-74
2022/10/05 14:12:11;;;;;;;1.00;0.70;;;;;;;17.96;55.47;101147.25;6348639;28;20118;-76
2022/10/05 14:15:21;;;;;;;2.42;0.70;;;;;;;17.99;56.56;101147.00;6343791;28;20091;-76
2022/10/05 14:18:24;;;;;;;2.30;0.77;;;;;;;17.79;56.07;101159.88;6348109;28;20449;-75
2022/10/05 14:21:28;;;;;;;1.88;0.70;;;;;;;17.80;56.99;101150.97;6364253;27;20074;-75
2022/10/05 14:24:47;;;;;;;1.92;0.85;;;;;;;17.71;55.38;101146.41;6346915;28;20067;-74
2022/10/05 14:28:09;;;;;;;1.23;0.60;;;;;;;17.83;55.95;101134.97;6348156;28;20059;-75
2022/10/05 14:31:12;;;;;;;0.57;0.43;;;;;;;17.84;54.85;101136.63;6346574;28;20051;-75
2022/10/05 14:34:26;;;;;;;0.50;0.50;;;;;;;17.84;55.10;101136.63;6346894;28;20408;-75
2022/10/05 14:37:41;;;;;;;3.33;0.88;;;;;;;17.72;55.26;101167.38;6346679;28;20043;-75
2022/10/05 14:40:44;;;;;;;1.77;1.02;;;;;;;17.77;57.93;101174.09;6346625;28;20050;-75
2022/10/05 14:43:58;;;;;;;1.90;0.40;;;;;;;17.76;57.37;101169.81;6347850;28;20039;-74
2022/10/05 14:47:15;;;;;;;0.30;0.30;;;;;;;17.64;57.48;101164.44;6346382;28;20055;-74
2022/10/05 14:50:24;;;;;;;3.80;0.60;;;;;;;17.56;56.24;101142.22;6346289;28;20039;-74
2022/10/05 14:53:44;;;;;;;2.55;0.75;;;;;;;17.46;58.41;101139.41;6347577;28;20495;-74
2022/10/05 14:57:18;;;;;;;0.95;0.85;;;;;;;17.27;57.87;101139.91;6347558;28;20125;-74
2022/10/05 15:00:20;;;;;;;5.50;2.88;;;;;;;17.20;61.08;101141.31;6347321;28;20040;-74
2022/10/05 15:03:38;;;;;;;7.97;2.88;;;;;;;17.15;60.56;101152.16;6346424;28;20475;-75
2022/10/05 15:06:43;;;;;;;3.47;1.98;;;;;;;17.05;61.85;101143.25;6346082;28;20100;-75
2022/10/05 15:09:54;;;;;;;3.08;1.80;;;;;;;16.90;65.83;101142.53;6347192;28;20058;-75
2022/10/05 15:13:06;;;;;;;4.13;1.85;;;;;;;16.76;63.11;101145.25;6347181;28;20043;-76
2022/10/05 15:16:18;;;;;;;0.95;0.80;;;;;;;16.73;62.17;101135.75;6346080;28;20040;-76
2022/10/05 15:19:23;;;;;;;;;;;;;;;16.72;62.59;101139.38;6347248;28;20062;-76
2022/10/05 15:22:35;;;;;;;1.48;0.98;;;;;;;16.64;64.04;101142.53;6345848;28;19920;-75